Time;durP1;ratioP1;P1;durP2;ratioP2;P2;SDS_P1;SDS_P2;PMS_P1;PMS_P2;Temp;Humidity;BMP_temperature;BMP_pressure;BME280_temperature;BME280_humidity;BME280_pressure;Samples;Min_cycle;Max_cycle;Signal;HPM_P1;HPM_P2
2023/04/27 00:01:52;;;;;;;3.97;2.22;;;17.50;1.00;;;;;;4934975;29;20067;-43
2023/04/27 00:04:19;;;;;;;2.65;1.60;;;17.50;1.00;;;;;;4934418;29;20556;-43
2023/04/27 00:06:46;;;;;;;4.47;1.75;;;17.50;1.00;;;;;;4934648;29;20476;-43
2023/04/27 00:09:13;;;;;;;2.20;1.27;;;17.50;1.00;;;;;;4934931;29;20078;-44
2023/04/27 00:11:40;;;;;;;2.28;1.50;;;17.40;1.00;;;;;;4933736;29;20032;-43
2023/04/27 00:14:07;;;;;;;4.97;1.95;;;17.40;1.00;;;;;;4934245;29;20047;-43
2023/04/27 00:16:33;;;;;;;2.60;1.40;;;17.40;1.00;;;;;;4934594;29;20044;-43
2023/04/27 00:19:00;;;;;;;2.95;1.65;;;17.40;1.00;;;;;;4934704;29;20039;-43
2023/04/27 00:21:27;;;;;;;2.30;1.58;;;17.40;1.00;;;;;;4934544;29;20066;-43
2023/04/27 00:23:54;;;;;;;2.85;2.00;;;17.40;1.00;;;;;;4934561;29;20082;-44
2023/04/27 00:26:21;;;;;;;1.60;1.25;;;17.40;1.00;;;;;;4934439;29;20066;-43
2023/04/27 00:28:50;;;;;;;2.80;1.60;;;17.40;1.00;;;;;;5526875;23;20062;-43
2023/04/27 00:31:17;;;;;;;2.78;1.60;;;17.40;1.00;;;;;;4933413;29;20533;-42
2023/04/27 00:33:44;;;;;;;3.90;1.48;;;17.40;1.00;;;;;;4936259;29;20043;-43
2023/04/27 00:36:10;;;;;;;2.90;1.60;;;17.30;1.00;;;;;;4953627;29;20372;-42
2023/04/27 00:38:37;;;;;;;2.55;1.52;;;17.30;1.00;;;;;;4936388;29;20052;-42
2023/04/27 00:41:06;;;;;;;2.00;1.48;;;17.30;1.00;;;;;;4936403;29;20055;-42
2023/04/27 00:43:42;;;;;;;2.05;1.20;;;17.30;1.00;;;;;;4953024;29;20455;-42
2023/04/27 00:46:10;;;;;;;2.00;1.23;;;17.30;1.00;;;;;;4929747;29;20083;-42
2023/04/27 00:48:39;;;;;;;2.67;1.55;;;17.30;1.00;;;;;;4945066;29;20079;-43
2023/04/27 00:51:06;;;;;;;3.15;1.40;;;17.30;1.00;;;;;;4953539;29;20051;-43
2023/04/27 00:53:34;;;;;;;3.08;2.13;;;17.30;1.00;;;;;;4935825;29;20094;-43
2023/04/27 00:56:02;;;;;;;3.67;1.50;;;17.30;1.00;;;;;;4953313;29;20044;-42
2023/04/27 00:58:29;;;;;;;2.75;1.40;;;17.30;1.00;;;;;;4936277;29;20087;-43
2023/04/27 01:00:58;;;;;;;2.13;1.15;;;17.30;1.00;;;;;;5086954;23;20416;-42
2023/04/27 01:03:25;;;;;;;2.00;1.30;;;17.20;1.00;;;;;;4953058;29;20055;-42
2023/04/27 01:05:53;;;;;;;2.03;1.15;;;17.20;1.00;;;;;;4920530;29;20121;-43
2023/04/27 01:08:20;;;;;;;2.70;1.58;;;17.30;1.00;;;;;;4936118;29;20047;-44
2023/04/27 01:10:48;;;;;;;2.97;1.48;;;17.20;1.00;;;;;;4936144;29;20470;-43
2023/04/27 01:13:15;;;;;;;2.70;1.23;;;17.20;1.00;;;;;;4952994;29;20102;-42
2023/04/27 01:15:42;;;;;;;2.17;1.10;;;17.20;1.00;;;;;;4936056;29;20039;-43
2023/04/27 01:18:08;;;;;;;2.38;1.52;;;17.20;1.00;;;;;;4953821;29;20047;-44
2023/04/27 01:20:37;;;;;;;2.97;1.20;;;17.20;1.00;;;;;;4953197;29;20411;-44
2023/04/27 01:23:04;;;;;;;2.03;1.10;;;17.20;1.00;;;;;;4955619;28;20051;-44
2023/04/27 01:25:31;;;;;;;2.38;1.58;;;17.20;1.00;;;;;;4956574;29;20051;-43
2023/04/27 01:28:01;;;;;;;4.55;1.42;;;17.10;1.00;;;;;;4956807;29;20059;-45
2023/04/27 01:33:40;;;;;;;3.20;1.35;;;17.10;1.00;;;;;;4854088;29;20424;-43
2023/04/27 01:36:08;;;;;;;2.00;1.40;;;17.10;1.00;;;;;;4835407;29;20050;-42
2023/04/27 01:38:36;;;;;;;3.05;1.20;;;17.10;1.00;;;;;;4841129;29;20464;-43
2023/04/27 01:41:04;;;;;;;1.50;1.15;;;17.10;1.00;;;;;;4842527;29;20514;-44
2023/04/27 01:43:31;;;;;;;2.50;0.95;;;17.10;1.00;;;;;;4842105;29;20084;-43
2023/04/27 01:46:07;;;;;;;2.03;1.20;;;17.10;1.00;;;;;;4858005;29;20502;-43
2023/04/27 01:48:35;;;;;;;1.90;1.35;;;17.10;1.00;;;;;;4857871;29;20060;-44
2023/04/27 01:51:02;;;;;;;3.90;1.42;;;17.00;1.00;;;;;;4842246;29;20049;-43
2023/04/27 01:53:29;;;;;;;2.72;1.40;;;17.10;1.00;;;;;;4841996;29;20415;-43
2023/04/27 01:55:58;;;;;;;1.73;1.17;;;17.10;1.00;;;;;;4857765;29;20053;-43
2023/04/27 01:58:25;;;;;;;1.60;0.90;;;17.00;1.00;;;;;;4842190;29;20049;-45
2023/04/27 02:00:52;;;;;;;2.75;1.17;;;17.00;1.00;;;;;;4842178;29;20118;-43
2023/04/27 02:03:19;;;;;;;2.40;1.30;;;17.00;1.00;;;;;;5007016;23;20029;-42
2023/04/27 02:05:49;;;;;;;2.35;1.30;;;17.00;1.00;;;;;;4872392;29;20041;-42
2023/04/27 02:08:16;;;;;;;3.08;1.10;;;17.00;1.00;;;;;;4880776;29;20037;-42
2023/04/27 02:10:43;;;;;;;2.10;1.20;;;17.00;1.00;;;;;;4879371;29;20047;-44
2023/04/27 02:13:10;;;;;;;1.90;1.20;;;17.00;1.00;;;;;;4879101;29;20041;-42
2023/04/27 02:15:37;;;;;;;1.67;0.80;;;17.00;1.00;;;;;;4871316;29;20144;-42
2023/04/27 02:18:04;;;;;;;2.88;1.23;;;17.00;1.00;;;;;;4879259;29;20045;-44
2023/04/27 02:20:31;;;;;;;2.45;1.30;;;17.00;1.00;;;;;;4879227;29;20493;-43
2023/04/27 02:23:01;;;;;;;2.08;1.00;;;16.90;1.00;;;;;;4878973;29;20041;-43
2023/04/27 02:25:27;;;;;;;3.22;1.60;;;16.90;1.00;;;;;;4880287;29;20111;-43
2023/04/27 02:27:54;;;;;;;2.67;1.50;;;16.90;1.00;;;;;;4879049;29;20140;-43
2023/04/27 02:30:22;;;;;;;2.45;0.98;;;16.90;1.00;;;;;;4871612;29;20057;-44
2023/04/27 02:32:49;;;;;;;2.58;1.13;;;16.90;1.00;;;;;;4871016;29;20382;-45
2023/04/27 02:35:16;;;;;;;1.58;1.20;;;16.90;1.00;;;;;;4872788;29;20494;-42
2023/04/27 02:37:43;;;;;;;1.73;1.23;;;16.90;1.00;;;;;;4878363;29;20049;-42
2023/04/27 02:40:10;;;;;;;2.58;1.17;;;16.90;1.00;;;;;;4878516;29;20216;-42
2023/04/27 02:42:37;;;;;;;2.28;1.08;;;16.90;1.00;;;;;;4879685;29;20069;-42
2023/04/27 02:45:07;;;;;;;2.17;1.10;;;16.90;1.00;;;;;;4879419;29;20462;-45
2023/04/27 02:47:35;;;;;;;1.45;0.75;;;16.90;1.00;;;;;;4878510;29;20041;-42
2023/04/27 02:50:02;;;;;;;4.63;1.40;;;16.80;1.00;;;;;;4880025;29;20033;-43
2023/04/27 02:52:33;;;;;;;1.88;1.20;;;16.80;1.00;;;;;;4878603;29;20058;-42
2023/04/27 02:55:00;;;;;;;2.95;1.58;;;16.80;1.00;;;;;;4878201;29;20077;-44
2023/04/27 02:57:27;;;;;;;3.00;1.30;;;16.80;1.00;;;;;;4870962;29;20111;-42
2023/04/27 02:59:54;;;;;;;2.10;1.25;;;16.80;1.00;;;;;;4879919;29;20045;-43
2023/04/27 03:02:20;;;;;;;1.88;1.30;;;16.80;1.00;;;;;;4879840;29;20045;-42
2023/04/27 03:04:52;;;;;;;1.88;1.25;;;16.80;1.00;;;;;;4876179;29;20044;-42
2023/04/27 03:07:20;;;;;;;1.98;1.10;;;16.80;1.00;;;;;;4879832;29;20041;-43
2023/04/27 03:09:47;;;;;;;2.28;1.13;;;16.80;1.00;;;;;;4878173;29;20493;-44
2023/04/27 03:12:14;;;;;;;1.77;1.25;;;16.80;1.00;;;;;;4878248;29;20436;-43
2023/04/27 03:14:40;;;;;;;1.88;1.10;;;16.70;1.00;;;;;;4871416;29;20049;-43
2023/04/27 03:17:07;;;;;;;3.30;1.25;;;16.80;1.00;;;;;;4879564;29;20041;-43
2023/04/27 03:19:34;;;;;;;1.67;1.20;;;16.70;1.00;;;;;;4877977;29;20390;-43
2023/04/27 03:22:00;;;;;;;1.40;0.80;;;16.80;1.00;;;;;;4879460;29;20075;-43
2023/04/27 03:24:28;;;;;;;1.77;0.93;;;16.70;1.00;;;;;;4879047;29;20481;-44
2023/04/27 03:26:55;;;;;;;1.98;1.02;;;16.70;1.00;;;;;;4878003;29;20056;-43
2023/04/27 03:29:21;;;;;;;1.70;1.20;;;16.70;1.00;;;;;;4870957;29;20064;-43
2023/04/27 03:31:48;;;;;;;1.27;0.98;;;16.70;1.00;;;;;;4878851;29;20125;-45
2023/04/27 03:34:15;;;;;;;1.77;1.02;;;16.70;1.00;;;;;;4877596;29;20065;-44
2023/04/27 03:36:42;;;;;;;1.40;1.10;;;16.70;1.00;;;;;;5007990;23;20522;-45
2023/04/27 03:39:09;;;;;;;1.90;1.10;;;16.70;1.00;;;;;;4896178;29;20096;-45
2023/04/27 03:41:35;;;;;;;2.22;1.10;;;16.70;1.00;;;;;;4896273;29;20064;-44
2023/04/27 03:44:03;;;;;;;2.30;0.65;;;16.70;1.00;;;;;;4897029;29;20108;-45
2023/04/27 03:46:31;;;;;;;1.35;1.10;;;16.70;1.00;;;;;;4895713;29;20059;-41
2023/04/27 03:48:59;;;;;;;2.60;1.33;;;16.70;1.00;;;;;;4896146;29;20337;-44
2023/04/27 03:51:26;;;;;;;1.52;1.02;;;16.70;1.00;;;;;;4895956;29;20072;-44
2023/04/27 03:53:53;;;;;;;1.70;1.10;;;16.70;1.00;;;;;;4895666;29;20108;-42
2023/04/27 03:56:20;;;;;;;2.10;1.10;;;16.70;1.00;;;;;;4895714;29;20424;-42
2023/04/27 03:58:46;;;;;;;3.60;0.98;;;16.60;1.00;;;;;;4895770;29;20158;-42
2023/04/27 04:01:17;;;;;;;1.65;0.93;;;16.60;1.00;;;;;;4895846;29;20055;-42
2023/04/27 04:03:46;;;;;;;1.00;0.70;;;16.60;1.00;;;;;;4895342;29;20071;-42
2023/04/27 04:06:13;;;;;;;1.33;0.95;;;16.60;1.00;;;;;;5227138;23;20370;-43
2023/04/27 04:08:40;;;;;;;2.85;1.05;;;16.60;1.00;;;;;;4893993;29;20044;-43
2023/04/27 04:11:07;;;;;;;3.20;1.35;;;16.60;1.00;;;;;;4896003;29;20044;-46
2023/04/27 04:13:35;;;;;;;1.38;1.13;;;16.60;1.00;;;;;;4895227;29;20570;-44
2023/04/27 04:16:07;;;;;;;2.22;1.20;;;16.60;1.00;;;;;;4895414;29;20048;-44
2023/04/27 04:18:35;;;;;;;3.95;1.23;;;16.50;1.00;;;;;;4895623;29;20445;-44
2023/04/27 04:21:03;;;;;;;1.20;0.80;;;16.50;1.00;;;;;;4895479;29;20134;-44
2023/04/27 04:23:31;;;;;;;2.60;1.17;;;16.50;1.00;;;;;;4895645;29;20045;-43
2023/04/27 04:25:58;;;;;;;2.10;1.08;;;16.60;1.00;;;;;;4895227;29;20489;-43
2023/04/27 04:28:30;;;;;;;2.38;1.25;;;16.50;1.00;;;;;;4895047;29;20472;-43
2023/04/27 04:30:57;;;;;;;4.10;1.60;;;16.50;1.00;;;;;;4895004;29;20051;-44
2023/04/27 04:33:25;;;;;;;2.10;1.45;;;16.50;1.00;;;;;;4895008;29;20044;-43
2023/04/27 04:35:52;;;;;;;1.23;1.10;;;16.50;1.00;;;;;;4895211;29;20060;-42
2023/04/27 04:38:19;;;;;;;2.33;1.60;;;16.50;1.00;;;;;;5023736;23;21122;-42
2023/04/27 04:40:46;;;;;;;1.80;1.00;;;16.50;1.00;;;;;;4892866;29;20061;-45
2023/04/27 04:43:13;;;;;;;3.20;1.52;;;16.50;1.00;;;;;;4895145;29;20461;-42
2023/04/27 04:45:41;;;;;;;1.35;0.85;;;16.50;1.00;;;;;;4886413;29;20049;-42
2023/04/27 04:48:10;;;;;;;3.75;1.27;;;16.50;1.00;;;;;;4889457;29;20073;-42
2023/04/27 04:50:38;;;;;;;1.60;1.30;;;16.50;1.00;;;;;;4895042;29;20056;-44
2023/04/27 04:53:05;;;;;;;2.38;0.80;;;16.40;1.00;;;;;;4895101;29;20135;-43
2023/04/27 04:55:32;;;;;;;3.53;1.50;;;16.50;1.00;;;;;;4894837;29;20048;-43
2023/04/27 04:57:59;;;;;;;1.95;1.13;;;16.50;1.00;;;;;;4899064;29;20040;-43
2023/04/27 05:00:27;;;;;;;3.20;1.13;;;16.40;1.00;;;;;;4900171;29;20626;-44
2023/04/27 05:02:54;;;;;;;1.88;1.45;;;16.40;1.00;;;;;;4899908;29;20063;-42
2023/04/27 05:05:21;;;;;;;1.27;0.90;;;16.40;1.00;;;;;;4899578;29;20033;-42
2023/04/27 05:07:47;;;;;;;1.60;1.13;;;16.40;1.00;;;;;;4898737;29;20053;-43
2023/04/27 05:10:14;;;;;;;1.17;0.95;;;16.40;1.00;;;;;;4900498;29;20040;-42
2023/04/27 05:12:43;;;;;;;2.38;1.15;;;16.40;1.00;;;;;;4899792;29;20096;-44
2023/04/27 05:15:10;;;;;;;1.50;0.82;;;16.40;1.00;;;;;;4899539;29;20045;-42
2023/04/27 05:17:37;;;;;;;1.75;0.98;;;16.40;1.00;;;;;;4899756;29;20051;-42
2023/04/27 05:20:05;;;;;;;2.30;1.20;;;16.40;1.00;;;;;;4899887;29;20048;-44
2023/04/27 05:22:31;;;;;;;2.70;0.88;;;16.40;1.00;;;;;;4884463;29;20071;-43
2023/04/27 05:24:58;;;;;;;2.00;1.27;;;16.40;1.00;;;;;;4891729;29;20037;-42
2023/04/27 05:27:25;;;;;;;1.98;1.17;;;16.40;1.00;;;;;;4899684;29;20115;-42
2023/04/27 05:29:52;;;;;;;1.77;1.00;;;16.40;1.00;;;;;;4899644;29;20045;-42
2023/04/27 05:32:18;;;;;;;2.78;1.10;;;16.40;1.00;;;;;;4899581;29;20120;-43
2023/04/27 05:34:45;;;;;;;1.40;0.85;;;16.30;1.00;;;;;;4899222;29;20056;-43
2023/04/27 05:37:15;;;;;;;1.23;0.80;;;16.30;1.00;;;;;;4899520;29;20047;-42
2023/04/27 05:39:42;;;;;;;2.28;1.40;;;16.30;1.00;;;;;;4895044;29;20467;-42
2023/04/27 05:42:08;;;;;;;1.63;1.00;;;16.30;1.00;;;;;;4899509;29;20112;-42
2023/04/27 05:44:35;;;;;;;0.98;0.70;;;16.30;1.00;;;;;;4899082;29;20033;-45
2023/04/27 05:47:02;;;;;;;2.50;1.45;;;16.30;1.00;;;;;;4899395;29;20103;-42
2023/04/27 05:49:29;;;;;;;1.55;1.05;;;16.30;1.00;;;;;;4899165;29;20044;-42
2023/04/27 05:51:57;;;;;;;2.22;1.13;;;16.30;1.00;;;;;;4898149;29;20071;-43
2023/04/27 05:54:24;;;;;;;2.22;0.70;;;16.30;1.00;;;;;;4899127;29;20049;-43
2023/04/27 05:56:51;;;;;;;1.10;0.80;;;16.30;1.00;;;;;;4899100;29;20045;-42
2023/04/27 05:59:18;;;;;;;2.47;0.88;;;16.30;1.00;;;;;;4899196;29;20029;-43
2023/04/27 06:01:45;;;;;;;1.58;1.38;;;16.30;1.00;;;;;;4899172;29;20071;-42
2023/04/27 06:04:11;;;;;;;2.00;1.05;;;16.30;1.00;;;;;;4898659;29;20070;-42
2023/04/27 06:06:38;;;;;;;1.73;1.05;;;16.30;1.00;;;;;;4899323;29;20447;-44
2023/04/27 06:09:05;;;;;;;3.08;0.90;;;16.30;1.00;;;;;;4899010;29;20488;-43
2023/04/27 06:11:32;;;;;;;4.95;1.40;;;16.30;1.00;;;;;;5021481;23;20096;-43
2023/04/27 06:13:59;;;;;;;1.45;1.08;;;16.30;1.00;;;;;;4898526;29;20412;-43
2023/04/27 06:16:25;;;;;;;4.32;1.00;;;16.20;1.00;;;;;;4898772;29;20400;-44
2023/04/27 06:18:52;;;;;;;2.08;1.20;;;16.30;1.00;;;;;;4898731;29;20080;-43
2023/04/27 06:21:19;;;;;;;1.00;0.70;;;16.20;1.00;;;;;;4898708;29;20041;-44
2023/04/27 06:23:46;;;;;;;1.45;0.93;;;16.20;1.00;;;;;;4898358;29;20225;-43
2023/04/27 06:26:12;;;;;;;2.70;1.05;;;16.20;1.00;;;;;;4898771;29;20072;-43
2023/04/27 06:28:39;;;;;;;1.40;1.00;;;16.20;1.00;;;;;;4898375;29;20048;-43
2023/04/27 06:31:06;;;;;;;3.10;0.80;;;16.20;1.00;;;;;;4898569;29;20044;-45
2023/04/27 06:33:33;;;;;;;2.45;1.13;;;16.20;1.00;;;;;;4898301;29;20049;-45
2023/04/27 06:36:00;;;;;;;1.60;1.10;;;16.20;1.00;;;;;;4898423;29;20044;-44
2023/04/27 06:38:28;;;;;;;2.22;1.02;;;16.20;1.00;;;;;;4898550;29;20045;-45
2023/04/27 06:41:05;;;;;;;1.30;0.98;;;16.30;1.00;;;;;;5158221;23;20798;31
2023/04/27 06:43:32;;;;;;;2.75;1.00;;;16.20;1.00;;;;;;4857884;29;20053;-43
2023/04/27 06:45:58;;;;;;;3.95;1.33;;;16.20;1.00;;;;;;4860956;29;20069;-43
2023/04/27 06:48:25;;;;;;;3.97;1.70;;;16.20;1.00;;;;;;4861002;29;20041;-43
2023/04/27 06:50:52;;;;;;;2.78;1.48;;;16.20;1.00;;;;;;4860608;29;20057;-44
2023/04/27 06:53:19;;;;;;;4.07;1.55;;;16.20;1.00;;;;;;4860515;29;20049;-44
2023/04/27 06:55:46;;;;;;;5.88;1.90;;;16.20;1.00;;;;;;4860915;29;20132;-43
2023/04/27 06:58:14;;;;;;;4.22;1.98;;;16.20;1.00;;;;;;4860707;29;20041;-43
2023/04/27 07:00:41;;;;;;;2.85;1.55;;;16.20;1.00;;;;;;4860615;29;20094;-43
2023/04/27 07:03:07;;;;;;;4.95;2.08;;;16.20;1.00;;;;;;4874693;29;20041;-46
2023/04/27 07:05:34;;;;;;;2.13;1.70;;;16.20;1.00;;;;;;4860546;29;20061;-43
2023/04/27 07:08:01;;;;;;;2.78;1.95;;;16.20;1.00;;;;;;4860607;29;20072;-43
2023/04/27 07:10:32;;;;;;;3.42;1.30;;;16.20;1.00;;;;;;4860459;29;20050;-43
2023/04/27 07:15:40;;;;;;;3.60;1.50;;;16.30;1.00;;;;;;4839644;29;20050;-44
2023/04/27 07:18:07;;;;;;;3.00;1.50;;;16.20;1.00;;;;;;4839777;29;20046;-44
2023/04/27 07:20:36;;;;;;;4.97;1.70;;;16.30;1.00;;;;;;4842490;29;20094;-45
2023/04/27 07:23:03;;;;;;;1.83;1.05;;;16.30;1.00;;;;;;4853354;29;20042;-44
2023/04/27 07:25:30;;;;;;;3.83;1.33;;;16.30;1.00;;;;;;4860338;29;20041;-44
2023/04/27 07:27:58;;;;;;;4.97;1.45;;;16.30;1.00;;;;;;4855599;29;20057;-45
2023/04/27 07:30:25;;;;;;;3.63;1.38;;;16.30;1.00;;;;;;4860646;29;20076;-44
2023/04/27 07:32:53;;;;;;;2.38;1.70;;;16.30;1.00;;;;;;4860409;29;20057;-44
2023/04/27 07:35:21;;;;;;;1.92;1.42;;;16.30;1.00;;;;;;4854137;29;20060;-45
2023/04/27 07:37:48;;;;;;;2.50;1.45;;;16.30;1.00;;;;;;4858173;29;20045;-45
2023/04/27 07:40:17;;;;;;;3.10;1.48;;;16.30;1.00;;;;;;4860546;29;20078;-45
2023/04/27 07:42:47;;;;;;;4.13;1.10;;;16.30;1.00;;;;;;4860674;29;20085;-45
2023/04/27 07:45:16;;;;;;;4.32;1.38;;;16.30;1.00;;;;;;4970981;23;20048;-44
2023/04/27 07:47:43;;;;;;;2.85;1.27;;;16.40;1.00;;;;;;4886391;29;20053;-44
2023/04/27 07:50:10;;;;;;;5.63;0.90;;;16.30;1.00;;;;;;4889734;29;20051;-45
2023/04/27 07:52:37;;;;;;;3.40;1.20;;;16.40;1.00;;;;;;4897032;29;20040;-44
2023/04/27 07:55:04;;;;;;;9.43;1.30;;;16.40;1.00;;;;;;4896898;29;20044;-44
2023/04/27 07:57:31;;;;;;;8.00;1.17;;;16.40;1.00;;;;;;4897625;29;20033;-45
2023/04/27 07:59:57;;;;;;;3.30;0.82;;;16.40;1.00;;;;;;4897521;29;20488;-44
2023/04/27 08:02:30;;;;;;;6.85;1.77;;;16.40;1.00;;;;;;4891714;29;20104;-44
2023/04/27 08:04:57;;;;;;;5.38;1.25;;;16.50;1.00;;;;;;4896140;29;20119;-44
2023/04/27 08:07:24;;;;;;;6.30;0.90;;;16.40;1.00;;;;;;4897400;29;20079;-45
2023/04/27 08:09:52;;;;;;;2.40;0.98;;;16.50;1.00;;;;;;4897336;29;20052;-46
2023/04/27 08:12:19;;;;;;;1.58;0.80;;;16.50;1.00;;;;;;4897471;29;20051;-46
2023/04/27 08:14:46;;;;;;;2.08;0.95;;;16.50;1.00;;;;;;4896271;29;20108;-45
2023/04/27 08:17:12;;;;;;;2.45;1.02;;;16.50;1.00;;;;;;4897622;29;20040;-45
2023/04/27 08:19:40;;;;;;;2.17;1.15;;;16.50;1.00;;;;;;4890272;29;20045;-45
2023/04/27 08:22:07;;;;;;;1.45;0.60;;;16.60;1.00;;;;;;4897271;29;20140;-44
2023/04/27 08:24:35;;;;;;;1.63;0.73;;;16.60;1.00;;;;;;4896856;29;20045;-45
2023/04/27 08:27:04;;;;;;;1.67;0.88;;;16.60;1.00;;;;;;4894837;29;20147;-45
2023/04/27 08:29:31;;;;;;;5.10;1.65;;;16.60;1.00;;;;;;4892356;29;20041;-45
2023/04/27 08:32:01;;;;;;;2.75;0.77;;;16.60;1.00;;;;;;4898199;29;20461;-45
2023/04/27 08:34:29;;;;;;;1.70;0.98;;;16.60;1.00;;;;;;4899408;29;20072;-45
2023/04/27 08:36:56;;;;;;;2.78;0.70;;;16.70;1.00;;;;;;4900773;29;20045;-44
2023/04/27 08:39:23;;;;;;;2.05;0.70;;;16.70;1.00;;;;;;4900910;29;20037;-44
2023/04/27 08:41:50;;;;;;;1.40;0.65;;;16.70;1.00;;;;;;4901311;29;20055;-45
2023/04/27 08:44:17;;;;;;;2.58;0.90;;;16.70;1.00;;;;;;4900556;29;20059;-46
2023/04/27 08:46:44;;;;;;;1.98;1.30;;;16.70;1.00;;;;;;5239245;23;20053;-45
2023/04/27 08:49:11;;;;;;;8.40;1.40;;;16.70;1.00;;;;;;4874782;29;20048;-45
2023/04/27 08:51:42;;;;;;;2.58;1.00;;;16.70;1.00;;;;;;4871246;29;20053;-45
2023/04/27 08:54:09;;;;;;;2.38;0.85;;;16.70;1.00;;;;;;4881616;29;20061;-46
2023/04/27 08:56:36;;;;;;;7.22;1.45;;;16.70;1.00;;;;;;4861209;29;20065;-45
2023/04/27 08:59:11;;;;;;;5.45;1.55;;;16.70;1.00;;;;;;4870855;29;20355;-45
2023/04/27 09:01:44;;;;;;;2.20;1.38;;;16.70;1.00;;;;;;4876937;23;20045;-38
2023/04/27 09:04:11;;;;;;;3.17;1.45;;;16.80;1.00;;;;;;4879148;29;20049;-38
2023/04/27 09:06:38;;;;;;;6.38;2.05;;;16.70;1.00;;;;;;4866253;29;20069;-39
2023/04/27 09:09:08;;;;;;;5.55;1.83;;;16.70;1.00;;;;;;4864679;29;20050;-39
2023/04/27 09:11:38;;;;;;;4.88;1.60;;;16.70;1.00;;;;;;4864418;29;20042;-39
2023/04/27 09:14:16;;;;;;;10.55;2.08;;;16.70;1.00;;;;;;4870456;29;20052;-39
2023/04/27 09:16:43;;;;;;;4.20;1.90;;;16.70;1.00;;;;;;4862595;29;20049;-39
2023/04/27 09:19:10;;;;;;;6.45;1.80;;;16.80;1.00;;;;;;4977216;23;20127;-39
2023/04/27 09:21:37;;;;;;;5.43;1.58;;;16.80;1.00;;;;;;4879627;29;20052;-39
2023/04/27 09:24:12;;;;;;;3.08;1.75;;;16.80;1.00;;;;;;4865525;29;20057;-39
2023/04/27 09:26:41;;;;;;;8.95;1.85;;;16.70;1.00;;;;;;4868041;29;20045;-39
2023/04/27 09:29:08;;;;;;;4.22;1.50;;;16.80;1.00;;;;;;4862604;29;20509;-41
2023/04/27 09:31:36;;;;;;;3.45;1.30;;;16.70;1.00;;;;;;4862883;29;20128;-39
2023/04/27 09:34:03;;;;;;;2.55;1.10;;;16.80;1.00;;;;;;4861072;29;20490;-39
2023/04/27 09:36:32;;;;;;;3.00;1.40;;;16.80;1.00;;;;;;4863038;29;20444;-40
2023/04/27 09:39:03;;;;;;;3.03;1.13;;;16.80;1.00;;;;;;4861019;29;20458;-39
2023/04/27 09:41:32;;;;;;;4.85;1.10;;;16.80;1.00;;;;;;4863077;29;20094;-38
2023/04/27 09:43:59;;;;;;;3.35;1.00;;;16.80;1.00;;;;;;4871433;29;20080;-38
2023/04/27 09:46:28;;;;;;;3.03;1.02;;;16.80;1.00;;;;;;4881844;29;20120;-38
2023/04/27 09:48:56;;;;;;;1.67;1.15;;;16.80;1.00;;;;;;4884046;29;20428;-38
2023/04/27 09:51:23;;;;;;;5.03;1.30;;;16.80;1.00;;;;;;4878519;29;20049;-38
2023/04/27 09:53:52;;;;;;;1.73;1.00;;;16.90;1.00;;;;;;4871409;29;20084;-38
2023/04/27 09:56:39;;;;;;;2.28;1.02;;;16.90;1.00;;;;;;4876576;29;20052;-38
2023/04/27 09:59:36;;;;;;;2.92;0.80;;;16.90;1.00;;;;;;4884134;29;20561;-38
2023/04/27 10:02:04;;;;;;;3.10;1.33;;;16.90;1.00;;;;;;4884260;29;20049;-39
2023/04/27 10:05:28;;;;;;;1.67;0.73;;;16.90;1.00;;;;;;4883663;29;20052;-38
2023/04/27 10:07:55;;;;;;;2.13;0.95;;;17.00;1.00;;;;;;4883519;29;20052;-39
2023/04/27 10:10:21;;;;;;;2.78;1.70;;;16.90;1.00;;;;;;4883019;29;20049;-38
2023/04/27 10:13:01;;;;;;;1.17;0.63;;;17.00;1.00;;;;;;4882862;29;20045;-38
2023/04/27 10:15:29;;;;;;;2.65;1.50;;;17.00;1.00;;;;;;4884168;29;20049;-38
2023/04/27 10:18:03;;;;;;;3.05;1.05;;;17.00;1.00;;;;;;4882682;29;20489;-38
2023/04/27 10:20:35;;;;;;;1.55;0.98;;;17.00;1.00;;;;;;4959240;23;20057;-38
2023/04/27 10:23:03;;;;;;;1.70;0.85;;;17.10;1.00;;;;;;4892894;29;20430;-39
2023/04/27 10:25:40;;;;;;;5.20;1.25;;;17.10;1.00;;;;;;4893904;29;20058;-38
2023/04/27 10:28:13;;;;;;;1.17;0.70;;;17.10;1.00;;;;;;4893834;29;20037;-39
2023/04/27 10:30:44;;;;;;;;;;;17.10;1.00;;;;;;4897101;29;20048;-38
2023/04/27 10:33:16;;;;;;;1.40;0.70;;;17.10;1.00;;;;;;4901051;29;19923;-39
2023/04/27 10:35:55;;;;;;;2.30;1.08;;;17.10;1.00;;;;;;4892653;29;20516;-39
2023/04/27 10:38:28;;;;;;;1.85;0.93;;;17.10;1.00;;;;;;4895255;29;20037;-38
2023/04/27 10:41:01;;;;;;;2.60;1.13;;;17.10;1.00;;;;;;4904771;29;20104;-38
2023/04/27 10:43:30;;;;;;;2.70;1.00;;;17.10;1.00;;;;;;4898441;29;20051;-38
2023/04/27 10:46:15;;;;;;;1.40;0.77;;;17.10;1.00;;;;;;4901178;29;20112;-39
2023/04/27 10:48:43;;;;;;;2.58;1.00;;;17.20;1.00;;;;;;4901717;29;20048;-37
2023/04/27 10:51:15;;;;;;;2.95;0.90;;;17.20;1.00;;;;;;4893261;29;20051;-38
2023/04/27 10:53:42;;;;;;;1.80;1.17;;;17.20;1.00;;;;;;4889857;29;20516;-38
2023/04/27 10:56:09;;;;;;;2.05;0.63;;;17.20;1.00;;;;;;4894325;29;20191;-38
2023/04/27 10:58:36;;;;;;;2.38;0.65;;;17.20;1.00;;;;;;4902996;29;20236;-40
2023/04/27 11:01:07;;;;;;;1.20;0.88;;;17.20;1.00;;;;;;4887556;29;20045;-38
2023/04/27 11:03:35;;;;;;;1.30;0.90;;;17.20;1.00;;;;;;4901609;29;20065;-39
2023/04/27 11:06:04;;;;;;;1.35;0.82;;;17.20;1.00;;;;;;4902709;29;20489;-38
2023/04/27 11:08:32;;;;;;;1.85;0.70;;;17.30;1.00;;;;;;4897988;29;20053;-38
2023/04/27 11:11:00;;;;;;;1.90;1.23;;;17.30;1.00;;;;;;4899726;29;20072;-39
2023/04/27 11:13:27;;;;;;;1.98;0.75;;;17.30;1.00;;;;;;4901474;29;20067;-39
2023/04/27 11:15:56;;;;;;;1.73;1.25;;;17.30;1.00;;;;;;4901051;29;20104;-39
2023/04/27 11:18:25;;;;;;;1.40;0.65;;;17.30;1.00;;;;;;4901479;29;20049;-39
2023/04/27 11:21:06;;;;;;;2.22;0.90;;;17.30;1.00;;;;;;5139176;23;20121;-39
2023/04/27 11:23:35;;;;;;;1.00;0.80;;;17.30;1.00;;;;;;4893688;29;20081;-38
2023/04/27 11:26:13;;;;;;;2.45;0.85;;;17.30;1.00;;;;;;4898991;29;20112;-38
2023/04/27 11:28:41;;;;;;;1.10;0.70;;;17.30;1.00;;;;;;4894398;29;20041;-38
2023/04/27 11:31:08;;;;;;;1.55;1.10;;;17.30;1.00;;;;;;4894144;29;20066;-39
2023/04/27 11:33:35;;;;;;;2.22;0.90;;;17.30;1.00;;;;;;4902437;29;20048;-41
2023/04/27 11:36:02;;;;;;;4.55;1.67;;;17.30;1.00;;;;;;4894515;29;20068;-39
2023/04/27 11:38:32;;;;;;;2.80;1.00;;;17.30;1.00;;;;;;4897816;29;20041;-40
2023/04/27 11:41:05;;;;;;;1.70;0.90;;;17.30;1.00;;;;;;4898793;29;20076;-39
2023/04/27 11:43:33;;;;;;;;;;;17.40;1.00;;;;;;4900824;29;20666;-40
2023/04/27 11:46:04;;;;;;;1.38;1.00;;;17.30;1.00;;;;;;4901283;29;19962;-38
2023/04/27 11:48:31;;;;;;;1.73;1.02;;;17.30;1.00;;;;;;4901505;29;20516;-39
2023/04/27 11:50:59;;;;;;;1.80;0.90;;;17.30;1.00;;;;;;4901315;29;20048;-39
2023/04/27 11:53:36;;;;;;;3.83;1.48;;;17.40;1.00;;;;;;4919410;23;20064;-38
2023/04/27 11:56:06;;;;;;;2.55;1.00;;;17.40;1.00;;;;;;4897953;29;20053;-38
2023/04/27 11:58:35;;;;;;;4.20;1.17;;;17.40;1.00;;;;;;4887547;29;20033;-39
2023/04/27 12:01:05;;;;;;;2.90;1.60;;;17.40;1.00;;;;;;4892148;29;20048;-38
2023/04/27 12:03:33;;;;;;;5.55;1.63;;;17.40;1.00;;;;;;4889724;29;20048;-39
2023/04/27 12:06:01;;;;;;;5.00;1.40;;;17.40;1.00;;;;;;4899567;29;20040;-39
2023/04/27 12:08:31;;;;;;;6.53;1.92;;;17.40;1.00;;;;;;4899345;29;20041;-38
2023/04/27 12:10:57;;;;;;;3.90;1.52;;;17.40;1.00;;;;;;4896972;29;20044;-39
2023/04/27 12:13:24;;;;;;;4.93;1.08;;;17.40;1.00;;;;;;4890023;29;20049;-40
2023/04/27 12:15:51;;;;;;;7.57;1.92;;;17.40;1.00;;;;;;4889612;29;20052;-38
2023/04/27 12:18:19;;;;;;;5.18;1.75;;;17.40;1.00;;;;;;4887471;29;20037;-41
2023/04/27 12:20:46;;;;;;;11.02;2.25;;;17.40;1.00;;;;;;4894292;29;20045;-41
2023/04/27 12:25:51;;;;;;;2.42;1.13;;;17.40;1.00;;;;;;4867681;29;20109;-39
2023/04/27 12:28:19;;;;;;;5.40;1.73;;;17.40;1.00;;;;;;4880740;29;20048;-38
2023/04/27 12:30:46;;;;;;;9.52;2.22;;;17.40;1.00;;;;;;4874929;29;20054;-38
2023/04/27 12:33:13;;;;;;;8.13;1.92;;;17.40;1.00;;;;;;4878334;29;20441;-38
2023/04/27 12:35:40;;;;;;;6.28;2.10;;;17.40;1.00;;;;;;4863700;29;20120;-39
2023/04/27 12:38:07;;;;;;;4.10;1.90;;;17.40;1.00;;;;;;4863419;29;20061;-38
2023/04/27 12:40:34;;;;;;;4.10;2.05;;;17.40;1.00;;;;;;4864048;29;20045;-40
2023/04/27 12:43:01;;;;;;;3.45;1.65;;;17.40;1.00;;;;;;4863943;29;20048;-38
2023/04/27 12:45:27;;;;;;;5.03;1.77;;;17.50;1.00;;;;;;4860933;29;20102;-38
2023/04/27 12:47:54;;;;;;;3.17;1.42;;;17.50;1.00;;;;;;4862230;29;20128;-38
2023/04/27 12:50:31;;;;;;;3.53;1.63;;;17.50;1.00;;;;;;4846124;29;20045;-38
2023/04/27 12:53:00;;;;;;;5.88;1.70;;;17.50;1.00;;;;;;4874652;29;20053;-39
2023/04/27 12:55:28;;;;;;;5.75;1.98;;;17.50;1.00;;;;;;4841379;29;20554;-39
2023/04/27 12:58:00;;;;;;;5.97;2.00;;;17.50;1.00;;;;;;4853477;29;20114;-39
2023/04/27 13:00:28;;;;;;;4.40;1.65;;;17.50;1.00;;;;;;4863004;29;20066;-39
2023/04/27 13:02:55;;;;;;;3.33;1.90;;;17.50;1.00;;;;;;4872914;29;20047;-39
2023/04/27 13:05:23;;;;;;;3.60;1.77;;;17.50;1.00;;;;;;4861266;29;20124;-39
2023/04/27 13:07:49;;;;;;;6.55;2.15;;;17.50;1.00;;;;;;4861831;29;20041;-39
2023/04/27 13:10:16;;;;;;;4.10;1.35;;;17.50;1.00;;;;;;4861140;29;20125;-39
2023/04/27 13:12:43;;;;;;;6.18;1.52;;;17.50;1.00;;;;;;4852003;29;20486;-39